SAZM/MDD METAR and TAF weather

Enter ICAO airport designator
Station Type Date Time Source
SAZM METAR 2020/09/27 15:00 UTC NOAA

SAZM 271500Z 19010KT 3500 -DZRA BR OVC003 11/11 Q1002


Station Type Date Time Source
SAZM Decoded METAR 2020/09/27 15:00 UTC NOAA

Mar Del Plata Aerodrome, Argentina (SAZM) 37-56S 057-35W 21M
Sep 27, 2020 - 11:00 AM EDT / 2020.09.27 1500 UTC
Wind: from the S (190 degrees) at 12 MPH (10 KT):0
Visibility: 2 mile(s):0
Sky conditions: overcast
Weather: light drizzle, rain; mist
Temperature: 51 F (11 C)
Dew Point: 51 F (11 C)
Relative Humidity: 100%
Pressure (altimeter): 29.59 in. Hg (1002 hPa)
ob: SAZM 271500Z 19010KT 3500 -DZRA BR OVC003 11/11 Q1002
cycle: 15

Station Type Date Time Source
SAZM TAF 2020/09/27 12:25 UTC NOAA

TAF SAZM 271100Z 2712/2812 25005KT 1500 BCFG OVC003 TX13/2718Z TN08/2809Z
TEMPO 2712/2718 20015G25KT 4000 SHRA BKN010 OVC030
BECMG 2718/2720 20020KT 7000 DZ SCT005 OVC015
BECMG 2723/2801 23015G25KT 8000 NSW SCT010 BKN030
BECMG 2810/2812 23020KT 9999 SCT030 BKN050

Example: see airport list